createdAt,value
2022-11-30T00:00:10.279Z,46.72
2022-11-30T00:05:13.146Z,43.58
2022-11-30T00:10:15.402Z,46.60
2022-11-30T00:15:17.512Z,45.72
2022-11-30T00:20:18.534Z,45.05
2022-11-30T00:25:21.393Z,49.97
2022-11-30T00:30:22.207Z,36.10
2022-11-30T00:35:22.979Z,38.90
2022-11-30T00:40:25.128Z,41.53
2022-11-30T00:45:25.900Z,46.22
2022-11-30T00:50:26.736Z,40.80
2022-11-30T00:55:30.462Z,43.15
2022-11-30T01:00:31.408Z,40.50
2022-11-30T01:05:34.442Z,48.63
2022-11-30T01:10:37.890Z,38.67
2022-11-30T01:15:40.182Z,45.75
2022-11-30T01:20:42.430Z,38.35
2022-11-30T01:25:54.717Z,40.70
2022-11-30T01:30:59.724Z,42.50
2022-11-30T01:36:02.918Z,38.53
2022-11-30T01:41:07.833Z,38.13
2022-11-30T01:46:29.356Z,42.63
2022-11-30T01:51:35.409Z,39.22
2022-11-30T01:56:38.669Z,36.90
2022-11-30T02:01:39.479Z,37.53
2022-11-30T02:06:40.480Z,41.13
2022-11-30T02:11:42.679Z,39.40
2022-11-30T02:16:53.413Z,35.25
2022-11-30T02:22:00.888Z,40.90
2022-11-30T02:27:14.823Z,41.13
2022-11-30T02:32:23.022Z,36.15
2022-11-30T02:37:26.498Z,38.30
2022-11-30T02:42:27.297Z,38.47
2022-11-30T02:47:37.439Z,37.97
2022-11-30T02:52:38.452Z,37.33
2022-11-30T02:57:39.261Z,40.75
2022-11-30T03:02:42.425Z,39.60
2022-11-30T03:07:43.413Z,43.95
2022-11-30T03:12:44.228Z,36.35
2022-11-30T03:17:46.391Z,40.70
2022-11-30T03:22:47.187Z,39.55
2022-11-30T03:27:48.001Z,39.97
2022-11-30T03:32:51.744Z,39.10
2022-11-30T03:37:52.502Z,38.67
2022-11-30T03:42:53.282Z,40.22
2022-11-30T03:47:55.437Z,38.85
2022-11-30T03:52:56.248Z,38.85
2022-11-30T03:57:57.054Z,42.97
2022-11-30T04:02:59.208Z,42.13
2022-11-30T04:08:00.090Z,41.35
2022-11-30T04:13:00.958Z,43.00
2022-11-30T04:18:03.154Z,44.90
2022-11-30T04:23:03.920Z,45.17
2022-11-30T04:28:04.731Z,45.55
2022-11-30T04:33:07.229Z,44.42
2022-11-30T04:38:08.033Z,51.80
2022-11-30T04:43:09.451Z,51.95
2022-11-30T04:48:11.593Z,47.60
2022-11-30T04:53:12.873Z,49.53
2022-11-30T04:58:13.645Z,47.03
2022-11-30T05:03:15.761Z,55.08
2022-11-30T05:08:16.532Z,52.15
2022-11-30T05:13:17.320Z,48.80
2022-11-30T05:18:19.450Z,46.17
2022-11-30T05:23:21.311Z,46.67
2022-11-30T05:28:22.265Z,47.38
2022-11-30T05:33:24.382Z,42.30
2022-11-30T05:38:25.200Z,44.05
2022-11-30T05:43:26.018Z,44.50
2022-11-30T05:48:28.344Z,40.60
2022-11-30T05:53:29.132Z,44.50
2022-11-30T05:58:29.964Z,39.30
2022-11-30T06:03:33.828Z,38.83
2022-11-30T06:08:34.614Z,38.38
2022-11-30T06:13:35.608Z,41.83
2022-11-30T06:18:38.350Z,40.65
2022-11-30T06:23:39.315Z,42.85
2022-11-30T06:28:45.355Z,37.53
2022-11-30T06:33:50.122Z,42.90
2022-11-30T06:38:51.270Z,38.03
2022-11-30T06:43:52.198Z,37.60
2022-11-30T06:48:54.463Z,40.67
2022-11-30T06:53:55.280Z,39.75
2022-11-30T06:59:20.716Z,41.83
2022-11-30T07:04:22.999Z,42.60
2022-11-30T07:09:23.883Z,38.42
2022-11-30T07:14:25.607Z,38.65
2022-11-30T07:19:27.838Z,37.75
2022-11-30T07:24:48.288Z,39.58
2022-11-30T07:29:51.540Z,42.78
2022-11-30T07:34:53.893Z,40.17
2022-11-30T07:39:55.208Z,35.67
2022-11-30T07:44:59.005Z,35.95
2022-11-30T07:50:01.585Z,39.85
2022-11-30T07:55:02.388Z,41.55
2022-11-30T08:00:03.724Z,41.55
2022-11-30T08:05:14.458Z,38.67
2022-11-30T08:10:15.381Z,36.72
2022-11-30T08:15:21.051Z,36.97
2022-11-30T08:20:24.297Z,34.42
2022-11-30T08:25:25.222Z,39.25
2022-11-30T08:30:29.399Z,34.90
2022-11-30T08:35:33.306Z,38.10
2022-11-30T08:40:34.141Z,38.38
2022-11-30T08:45:35.042Z,40.97
2022-11-30T08:50:37.705Z,42.40
2022-11-30T08:55:38.695Z,36.80
2022-11-30T09:00:39.465Z,39.55
2022-11-30T09:05:41.615Z,34.90
2022-11-30T09:10:42.384Z,36.33
2022-11-30T09:15:43.295Z,39.90
2022-11-30T09:20:45.444Z,34.83
2022-11-30T09:25:46.277Z,37.58
2022-11-30T09:30:47.259Z,32.25
2022-11-30T09:35:57.745Z,38.67
2022-11-30T09:41:00.285Z,34.65
2022-11-30T09:46:04.597Z,36.25
2022-11-30T09:51:14.980Z,39.13
2022-11-30T09:56:23.912Z,36.50
2022-11-30T10:01:32.853Z,32.10
2022-11-30T10:06:49.769Z,36.72
2022-11-30T10:11:59.739Z,35.42
2022-11-30T10:17:13.100Z,37.83
2022-11-30T10:22:22.518Z,37.20
2022-11-30T10:27:40.703Z,36.60
2022-11-30T10:32:45.286Z,37.92
2022-11-30T10:37:48.651Z,40.53
2022-11-30T10:42:54.152Z,35.47
2022-11-30T10:48:01.944Z,39.45
2022-11-30T10:53:04.219Z,36.53
2022-11-30T10:58:13.170Z,36.72
2022-11-30T11:03:24.800Z,36.63
2022-11-30T11:08:27.756Z,35.08
2022-11-30T11:13:40.260Z,35.72
2022-11-30T11:18:53.702Z,30.95
2022-11-30T11:23:58.401Z,32.17
2022-11-30T11:29:00.461Z,30.90
2022-11-30T11:34:01.323Z,34.42
2022-11-30T11:39:03.722Z,30.58
2022-11-30T11:44:07.380Z,32.40
2022-11-30T11:49:21.425Z,34.22
2022-11-30T11:54:27.146Z,31.40
2022-11-30T11:59:40.246Z,34.22
2022-11-30T12:04:46.668Z,30.05
2022-11-30T12:09:58.259Z,28.95
2022-11-30T12:14:59.195Z,33.20
2022-11-30T12:20:11.677Z,36.70
2022-11-30T12:25:25.338Z,32.42
2022-11-30T12:30:33.211Z,32.65
2022-11-30T12:35:41.038Z,31.20
2022-11-30T12:40:53.035Z,32.13
2022-11-30T12:46:00.765Z,32.10
2022-11-30T12:51:12.864Z,37.97
2022-11-30T12:56:27.930Z,33.38
2022-11-30T13:01:44.274Z,31.42
2022-11-30T13:06:49.727Z,30.63
2022-11-30T13:11:57.647Z,33.70
2022-11-30T13:17:03.387Z,32.17
2022-11-30T13:22:11.140Z,30.85
2022-11-30T13:27:19.510Z,32.10
2022-11-30T13:32:56.767Z,29.52
2022-11-30T13:37:41.728Z,35.88
2022-11-30T13:42:51.307Z,30.73
2022-11-30T13:47:58.750Z,31.63
2022-11-30T13:53:25.357Z,31.67
2022-11-30T13:58:28.497Z,33.47
2022-11-30T14:03:31.445Z,33.85
2022-11-30T14:08:35.578Z,28.65
2022-11-30T14:13:37.742Z,33.05
2022-11-30T14:18:43.831Z,32.60
2022-11-30T14:23:51.320Z,33.70
2022-11-30T14:29:01.913Z,32.15
2022-11-30T14:34:07.738Z,30.05
2022-11-30T14:39:27.630Z,27.95
2022-11-30T14:44:35.503Z,32.83
2022-11-30T14:49:36.331Z,31.40
2022-11-30T14:54:46.699Z,36.58
2022-11-30T14:59:52.276Z,32.83
2022-11-30T15:04:55.979Z,32.53
2022-11-30T15:10:04.742Z,32.00
2022-11-30T15:15:15.361Z,37.10
2022-11-30T15:20:25.921Z,34.83
2022-11-30T15:25:32.823Z,32.75
2022-11-30T15:30:39.620Z,32.72
2022-11-30T15:36:13.806Z,34.08
2022-11-30T15:41:19.876Z,36.58
2022-11-30T15:46:34.445Z,37.30
2022-11-30T15:51:39.211Z,34.58
2022-11-30T15:56:40.072Z,33.92
2022-11-30T16:02:04.804Z,33.70
2022-11-30T16:07:05.802Z,34.83
2022-11-30T16:12:25.974Z,36.47
2022-11-30T16:17:30.169Z,34.10
2022-11-30T16:22:31.008Z,36.30
2022-11-30T16:27:31.809Z,35.45
2022-11-30T16:32:34.018Z,37.42
2022-11-30T16:37:34.805Z,38.22
2022-11-30T16:42:35.592Z,43.88
2022-11-30T16:47:37.794Z,38.95
2022-11-30T16:52:38.721Z,42.60
2022-11-30T16:57:39.509Z,37.60
2022-11-30T17:02:46.090Z,38.65
2022-11-30T17:07:46.969Z,36.88
2022-11-30T17:12:48.104Z,38.03
2022-11-30T17:17:50.290Z,36.22
2022-11-30T17:22:51.135Z,37.13
2022-11-30T17:27:52.293Z,35.58
2022-11-30T17:32:54.574Z,38.00
2022-11-30T17:37:55.565Z,37.97
2022-11-30T17:42:56.372Z,41.33
2022-11-30T17:47:58.527Z,60.45
2022-11-30T17:52:59.477Z,35.20
2022-11-30T17:58:00.376Z,39.08
2022-11-30T18:03:02.691Z,41.95
2022-11-30T18:08:03.649Z,52.20
2022-11-30T18:13:04.503Z,52.45
2022-11-30T18:18:06.895Z,60.25
2022-11-30T18:23:07.682Z,65.88
2022-11-30T18:28:08.509Z,77.72
2022-11-30T18:33:10.750Z,73.88
2022-11-30T18:38:11.569Z,76.57
2022-11-30T18:43:12.363Z,78.03
2022-11-30T18:48:14.606Z,87.25
2022-11-30T18:53:18.469Z,84.90
2022-11-30T18:58:19.492Z,89.53
2022-11-30T19:03:21.650Z,84.93
2022-11-30T19:08:22.481Z,77.22
2022-11-30T19:13:23.381Z,89.43
2022-11-30T19:18:25.591Z,80.78
2022-11-30T19:23:26.676Z,83.68
2022-11-30T19:28:30.101Z,89.53
2022-11-30T19:33:32.330Z,86.10
2022-11-30T19:38:33.162Z,80.72
2022-11-30T19:43:34.264Z,81.78
2022-11-30T19:48:39.029Z,80.43
2022-11-30T19:53:40.942Z,81.95
2022-11-30T19:58:42.411Z,72.07
2022-11-30T20:03:45.033Z,77.50
2022-11-30T20:08:46.050Z,79.50
2022-11-30T20:13:46.961Z,73.10
2022-11-30T20:18:55.905Z,74.20
2022-11-30T20:23:59.268Z,79.30
2022-11-30T20:29:01.782Z,73.97
2022-11-30T20:34:04.079Z,71.18
2022-11-30T20:39:05.690Z,78.15
2022-11-30T20:44:06.674Z,74.75
2022-11-30T20:49:17.451Z,78.70
2022-11-30T20:54:18.647Z,78.53
2022-11-30T20:59:23.634Z,76.60
2022-11-30T21:04:26.796Z,76.03
2022-11-30T21:09:27.715Z,81.20
2022-11-30T21:14:28.552Z,81.53
2022-11-30T21:19:30.707Z,73.78
2022-11-30T21:24:31.617Z,70.15
2022-11-30T21:29:32.411Z,71.60
2022-11-30T21:34:34.588Z,86.65
2022-11-30T21:39:36.328Z,76.25
2022-11-30T21:44:37.123Z,75.38
2022-11-30T21:49:39.224Z,66.05
2022-11-30T21:54:39.993Z,74.13
2022-11-30T21:59:40.836Z,70.57
2022-11-30T22:04:43.351Z,63.20
2022-11-30T22:09:44.161Z,67.45
2022-11-30T22:14:44.940Z,81.72
2022-11-30T22:19:47.394Z,78.60
2022-11-30T22:24:48.973Z,72.30
2022-11-30T22:29:50.912Z,78.38
2022-11-30T22:34:53.036Z,74.75
2022-11-30T22:39:53.855Z,69.88
2022-11-30T22:44:54.639Z,72.10
2022-11-30T22:49:56.815Z,70.03
2022-11-30T22:54:57.652Z,84.55
2022-11-30T22:59:58.505Z,84.75
2022-11-30T23:05:00.734Z,85.28
2022-11-30T23:10:01.543Z,82.22
2022-11-30T23:15:02.356Z,77.32
2022-11-30T23:20:04.808Z,82.15
2022-11-30T23:25:06.153Z,80.88
2022-11-30T23:30:09.204Z,73.65
2022-11-30T23:35:11.576Z,74.22
2022-11-30T23:40:13.423Z,77.97
2022-11-30T23:45:14.266Z,72.53
2022-11-30T23:50:16.533Z,76.85
2022-11-30T23:55:17.458Z,74.15
